Petropolis, Brazil
Current Conditions -  °F | °C
As of 6:00 AM on Thursday 23 Oct 2014 (Local Time) from SBGL Reporting Station
Broken Clouds Broken Clouds  
Wind Chill: 68°   Ceiling: 5000
Heat Index: 68°   Visibility: 6mi
Dew Point: 59°   Wind: 5mph
Humidity: 73%   Direction: 90°E
Pressure: 30.12"   Gusts: NA
Location:  22.51°S, 43.2°W
Report Text: SBGL 230800Z 09004KT 9999 SCT025 BKN050 20/15 Q1020
Loading
Personal Weather Stations






























Interactive Weather Map
Tropical Storm Tracking
New forecast layout! Learn more

10-Day Weather Forecast

Advertisements
Track Severe Weather on mobile